Strona główna
METAR-TAF:

METAR-TAF

Lotnisko :

Port lotniczy Huesca

Huesca, Hiszpania

Szerokość geograficzna: 42-04-32N, Długość geograficzna: 0-18-58W, wysokość: 539 m

Aktualna obserwacja pogody

Raport powstał 18 minut temu, godzina 11:30 UTC
Wiatr 13 kt od zachód
Temperatura 10°C
Wilgotność 66%
Ciśnienie 1024 hPa
Widzialność 10 km lub więcej
Brak chmur poniżej 1500 m i brak chmur cumulonimbus

METAR: LEHC 101130Z 27013KT CAVOK 10/04 Q1024

czas: 12:48 (11:48 UTC)

Prognoza

Raport powstał 3 godziny i 48 minut temu, godzina 08:00 UTC
Prognoza ważna od 10 godzina 09 UTC do 11 godzina 09 UTC
Wiatr 10 kt od zachód
Widzialność 10 km lub więcej
Mało chmury na wysokości 3000 ft
Stopniowe zmiany
od 10 godzina 20 UTC do 10 godzina 22 UTC
Wiatr 4 kt z kierunków zmiennych

TAF: LEHC 100800Z 1009/1109 28010KT 9999 FEW030 TX13/1013Z TN02/1106Z BECMG 1020/1022 VRB04KT

Obserwacja i prognoza pogody dla ponad 4000 lotnisk (raport METAR i TAF).

Dostępne stacje oznaczono żółtymi i czerwonymi punktami na mapie.

Najedź kursorem aby zobaczyć nazwę stacji.

Kliknij aby zobaczyć obserwacje i prognozy pogody.

Aby zmienić mapę: kliknij na zielony przycisk z czarnym krzyżykiem, aby powiększyć; na zielony przycisk z myślnikiem, aby pomniejszyć; na zielone strzałki, aby przejść do map sąsiednich.


METAR-TAF: